This is the latest recevied weather packets stored in our database for station/object KC9VAF. If no packets are shown the sender has not sent any weather packets the latest 1 day(s).
| Time | Temp. | Humidity | Pressure | Rain* | Wind** | Luminosity | Snow |
|---|---|---|---|---|---|---|---|
| 1836274668 | 21.67° C | 88% | 1018.8 hPa | 0 mm | 0 m/s | 0 W/m² | - |
| 1836274521 | 21.67° C | 86% | 1019.1 hPa | 0 mm | 0 m/s | 0 W/m² | - |
| 1836274366 | 21.11° C | 89% | 1018.7 hPa | 0 mm | 0.45 m/s, 98° | 0 W/m² | - |
| 1836274220 | 21.67° C | 87% | 1018.9 hPa | 0 mm | 0.45 m/s, 75° | 0 W/m² | - |
| 1836274065 | 21.11° C | 90% | 1018.8 hPa | 0 mm | 0.45 m/s, 97° | 0 W/m² | - |
| 1778043694 | 5.56° C | 53% | 1012.7 hPa | 0 mm | 0 m/s | 0 W/m² | - |
| 1778043391 | 6.11° C | 53% | 1012.5 hPa | 0 mm | 0 m/s | 0 W/m² | - |
| 1778043087 | 6.11° C | 52% | 1012.5 hPa | 0 mm | 0 m/s | 0 W/m² | - |
| 1778042785 | 6.67° C | 51% | 1012.3 hPa | 0 mm | 0 m/s | 0 W/m² | - |
| 1778042482 | 6.67° C | 50% | 1012.5 hPa | 0 mm | 0 m/s | 0 W/m² | - |
| 1778042179 | 6.67° C | 49% | 1012.2 hPa | 0 mm | 0.45 m/s, 96° | 0 W/m² | - |
| 1778041877 | 7.22° C | 49% | 1012.3 hPa | 0 mm | 0.45 m/s, 51° | 0 W/m² | - |
| 1778041576 | 7.22° C | 47% | 1012.5 hPa | 0 mm | 0 m/s | 0 W/m² | - |
| 1778041274 | 7.78° C | 46% | 1012.4 hPa | 0 mm | 0 m/s | 0 W/m² | - |
| 1778040972 | 7.78° C | 46% | 1012.2 hPa | 0 mm | 0.45 m/s, 72° | 0 W/m² | - |
| 1778040668 | 7.78° C | 44% | 1012 hPa | 0 mm | 0.45 m/s, 72° | 0 W/m² | - |
| 1778040367 | 8.33° C | 44% | 1011.9 hPa | 0 mm | 0.45 m/s, 70° | 0 W/m² | - |
| 1778040062 | 8.33° C | 44% | 1012.2 hPa | 0 mm | 0.45 m/s, 40° | 0 W/m² | - |
| 1778039759 | 8.33° C | 44% | 1012 hPa | 0 mm | 0 m/s | 0 W/m² | - |
| 1778039456 | 8.33° C | 43% | 1011.9 hPa | 0 mm | 0.45 m/s, 55° | 0 W/m² | - |
| 1778039153 | 8.33° C | 43% | 1011.8 hPa | 0 mm | 2.24 m/s, 16° | 0 W/m² | - |
| 1778038850 | 8.89° C | 43% | 1011.9 hPa | 0 mm | 0.89 m/s, 49° | 0 W/m² | - |
| 1778038548 | 8.89° C | 43% | 1011.8 hPa | 0 mm | 0.45 m/s, 35° | 0 W/m² | - |
| 1778038244 | 8.89° C | 43% | 1012.1 hPa | 0 mm | 0.45 m/s, 90° | 0 W/m² | - |
| 1778037942 | 8.89° C | 43% | 1011.9 hPa | 0 mm | 1.34 m/s, 7° | 0 W/m² | - |
* Rain latest hour (hover to see other rain measurements)
** Current wind speed in m/s (hover to see current wind gust speed)